Number First Last
Select Group
Name City Bib Place Group Grp Pl Gend Pl Time Pace
Ryan Turner Newport, OR 153 1 M20-24 1 1 19:08 6:10
Joaquin Varo Newport, OR 187 2 M35-39 1 2 21:41 6:59
Mary Gaither Vancouver, WA 151 3 F30-34 1 1 23:59 7:44
Jeffrey McKay Eugene, OR 162 4 M50-54 1 3 24:00 7:44
Alex Welch Pacific City, OR 188 5 M15-19 1 4 25:30 8:13
Noelle Cavanaugh Waldport, OR 182 6 F35-39 1 2 25:48 8:19
Nicole Rickles Newport, OR 192 7 F30-34 2 3 25:56 8:22
Darron Welch Pacific City, OR 189 8 M45-49 1 5 28:57 9:20
Erin Holmes lincoln city, OR 156 9 F35-39 2 4 30:51 9:56
Carol Logsdon NEWPORT, OR 171 10 F50-54 1 5 31:45 10:14
Marsha Eckelman Newport, OR 169 11 F60-64 1 6 31:46 10:15
Tamara Baumberger Newport, OR 183 12 F35-39 3 7 32:10 10:22
Susannah Hutley Lebanon, OR 173 13 F12-14 1 8 32:27 10:28
Scott Hutley Lebanon, OR 174 14 M9-11 1 6 32:32 10:29
Stephanie Brady Lebanon, OR 172 15 F35-39 4 9 32:33 10:30
Nina Bain NEWPORT, OR 170 16 F12-14 2 10 36:48 11:52
Jennifer Jones Dundee, OR 159 17 F45-49 1 11 36:59 11:55
Victor Starostka Pacific City, OR 194 18 M70+ 1 7 37:02 11:56
M'Kenzie Kirchner Toledo, OR 177 19 F12-14 3 12 37:16 12:01
Karen Daugherty Toledo, OR 168 20 F50-54 2 13 37:16 12:01
Heather Dodge Otter Rock, OR 178 21 F35-39 5 14 37:30 12:05
Megan Ingalls Monmouth, OR 154 22 F30-34 3 15 42:47 13:48
Jeanette Franzen Oregon City, OR 155 23 F30-34 4 16 42:47 13:48
Avery Leffler Milwaukie, OR 165 24 F9-11 1 17 45:27 14:39
Julie Leffler Milwaukie, OR 166 25 F45-49 2 18 45:28 14:40
Jennifer Pettit South Beach, OR 152 26 F45-49 3 19 49:25 15:56
Cadence Munson Dundee, OR 158 27 F9-11 2 20 50:54 16:25
Achsa Davis Beaverton, OR 157 28 F40-44 1 21 51:00 16:26
Gretchen Gantz Newport, OR 164 29 F60-64 2 22 51:39 16:39
Kathy Starostka Pacific City, OR 193 30 F70+ 1 23 53:46 17:20
Stephanie Welch Pacific City, OR 190 31 F45-49 4 24 53:47 17:21
Isaak Welch Pacific City, OR 191 32 M15-19 2 8 53:47 17:21
Tonya McKay Eugene, OR 163 33 F50-54 3 25 01:04:34 20:49
Debbie Rief-Adams Bend, OR 150 34 F45-49 5 26 01:05:09 21:01
Gway Kirchner Toledo, OR 175 35 F40-44 2 27 01:15:30 24:21
D'Ann Kirchner Sandy, OR 176 36 F60-64 3 28 01:15:30 24:21